»·PEaware :: N9229P KAPA-KCYS

N9229P :: KAPA-KCYS

FLIGHT INFORMATION

Flight Status: Arrived
Operator: Privately registered:
United States
More flights under this callsign
Pilot: James W. (24810)
Aircraft: PIPER PA-24 COMMANCHE
(PA24)
More flights by this aircraft type
Origin: KAPA Centennial
United States
Destination: KCYS Cheyenne
United States
More flights between these airports :: More routes between these airports
Route: +EXTAN6 BJC WISER BARGR
File this flight plan on PilotEdge
Remarks:
Altitude:
(Current/Filed)
12,000ft
Speed:
(Current/Filed)
165kts
Departed: 10-May-20 07:13 PM
Arrived: 10-May-20 08:08 PM
Distance/Time
Traveled:
95nm/0:55
Distance/Time
To Go:
Arrived

Flight Plot

Page will automatically refresh every two minutes.

Flight plan parsing failed; only flown route is shown


Map Options




Map Legend


Flown Route
Filed Route
Departure Airport
Arrival Airport
Navaid (VOR, NDB)
Fix

Horizontal Profiles

Position Reports

Time Latitude Longitude Heading Altitude Ground
Speed
10-May-20 18:54 39.570928 -104.848357 179 5886ft 0kts
10-May-20 18:55 39.570928 -104.848357 179 5886ft 0kts
10-May-20 18:56 39.570928 -104.848357 179 5886ft 0kts
10-May-20 18:57 39.570928 -104.848357 179 5886ft 0kts
10-May-20 18:58 39.570928 -104.848357 179 5886ft 0kts
10-May-20 18:59 39.570928 -104.848357 179 5886ft 0kts
10-May-20 19:00 39.570928 -104.848357 179 5886ft 0kts
10-May-20 19:01 39.570928 -104.848357 179 5886ft 0kts
10-May-20 19:02 39.570928 -104.848357 179 5886ft 0kts
10-May-20 19:03 39.570928 -104.848357 179 5886ft 0kts
10-May-20 19:04 39.570928 -104.848357 179 5886ft 0kts
10-May-20 19:05 39.570928 -104.848357 179 5886ft 0kts
10-May-20 19:06 39.571226 -104.848911 330 5886ft 7kts
10-May-20 19:06 39.569019 -104.849384 176 5886ft 15kts
10-May-20 19:08 39.563914 -104.849133 178 5886ft 18kts
10-May-20 19:08 39.560363 -104.848963 177 5886ft 10kts
10-May-20 19:10 39.556843 -104.848888 237 5886ft 4kts
10-May-20 19:10 39.556817 -104.848997 259 5886ft 0kts
10-May-20 19:11 39.556817 -104.848997 259 5886ft 0kts
10-May-20 19:13 39.559225 -104.850385 359 5886ft 60kts
10-May-20 19:13 39.582673 -104.850762 359 6602ft 119kts
10-May-20 19:15 39.623713 -104.850816 359 8009ft 129kts
10-May-20 19:15 39.653082 -104.850787 359 9008ft 125kts
10-May-20 19:16 39.686878 -104.850748 359 10203ft 118kts
10-May-20 19:17 39.717780 -104.847902 346 11405ft 107kts
10-May-20 19:18 39.739854 -104.875012 310 11766ft 150kts
10-May-20 19:19 39.752638 -104.894224 310 11764ft 165kts
10-May-20 19:20 39.783638 -104.941392 310 11762ft 176kts
10-May-20 19:21 39.815583 -104.990208 310 11761ft 176kts
10-May-20 19:22 39.847307 -105.038728 310 11762ft 176kts
10-May-20 19:23 39.879000 -105.087266 310 11762ft 176kts
10-May-20 19:24 39.912799 -105.132830 337 11758ft 176kts
10-May-20 19:25 39.960679 -105.125932 11 11762ft 176kts
10-May-20 19:26 40.008545 -105.112780 11 11762ft 176kts
10-May-20 19:27 40.056391 -105.099575 11 11762ft 176kts
10-May-20 19:28 40.104477 -105.086321 11 11762ft 176kts
10-May-20 19:29 40.152304 -105.073014 11 11762ft 176kts
10-May-20 19:30 40.200220 -105.059658 11 11762ft 176kts
10-May-20 19:31 40.248057 -105.046307 11 11762ft 176kts
10-May-20 19:32 40.296039 -105.032903 11 11762ft 176kts
10-May-20 19:33 40.343924 -105.019513 11 11762ft 176kts
10-May-20 19:34 40.391956 -105.006066 11 11762ft 176kts
10-May-20 19:35 40.439779 -104.992644 11 11762ft 176kts
10-May-20 19:36 40.487858 -104.979057 11 11762ft 176kts
10-May-20 19:37 40.536142 -104.965531 11 11699ft 178kts
10-May-20 19:38 40.584174 -104.952002 11 11698ft 176kts
10-May-20 19:39 40.631391 -104.957991 338 11698ft 176kts
10-May-20 19:40 40.677350 -104.980768 339 11698ft 176kts
10-May-20 19:41 40.723234 -105.003171 339 11698ft 176kts
10-May-20 19:42 40.769206 -105.025717 339 11698ft 176kts
10-May-20 19:43 40.815210 -105.048311 339 11698ft 176kts
10-May-20 19:44 40.861213 -105.070938 339 11698ft 176kts
10-May-20 19:45 40.908345 -105.087034 352 11698ft 176kts
10-May-20 19:46 40.957047 -105.095661 352 11697ft 176kts
10-May-20 19:47 41.006238 -105.104300 352 11489ft 185kts
10-May-20 19:48 41.058115 -105.113406 352 10992ft 190kts
10-May-20 19:49 41.110078 -105.122556 352 10497ft 190kts
10-May-20 19:50 41.160964 -105.131526 352 10533ft 170kts
10-May-20 19:51 41.193304 -105.161348 252 10610ft 174kts
10-May-20 19:52 41.184505 -105.223591 271 10598ft 169kts
10-May-20 19:53 41.187879 -105.283506 275 10598ft 153kts
10-May-20 19:54 41.161975 -105.303397 131 10601ft 145kts
10-May-20 19:55 41.173774 -105.258575 50 10599ft 142kts
10-May-20 19:56 41.183438 -105.213201 94 10597ft 127kts
10-May-20 19:57 41.180730 -105.168811 94 10599ft 116kts
10-May-20 19:58 41.178078 -105.128815 94 10546ft 103kts
10-May-20 19:59 41.175305 -105.088414 95 10056ft 113kts
10-May-20 20:00 41.172533 -105.047733 94 9551ft 105kts
10-May-20 20:01 41.169940 -105.009687 94 9049ft 103kts
10-May-20 20:02 41.167266 -104.971774 95 8534ft 104kts
10-May-20 20:03 41.164499 -104.932595 94 7884ft 107kts
10-May-20 20:04 41.161805 -104.893268 94 7282ft 106kts
10-May-20 20:05 41.159095 -104.854401 94 6712ft 106kts
10-May-20 20:06 41.156461 -104.816764 95 6175ft 76kts
10-May-20 20:07 41.155400 -104.801737 96 6156ft 18kts

Navigation Log

Ident Type
Flight plan parsing failed, navigation log unavailable